createdAt,value
2023-03-02T00:00:40.685Z,87962.66
2023-03-02T00:03:25.578Z,87963.78
2023-03-02T00:06:11.424Z,87970.06
2023-03-02T00:08:56.127Z,87976.53
2023-03-02T00:11:40.864Z,87975.59
2023-03-02T00:14:25.743Z,87975.81
2023-03-02T00:17:10.544Z,87971.81
2023-03-02T00:19:55.662Z,87973.47
2023-03-02T00:22:40.540Z,87982.78
2023-03-02T00:25:25.400Z,87984.16
2023-03-02T00:28:10.309Z,87986.22
2023-03-02T00:30:55.052Z,87985.91
2023-03-02T00:33:39.878Z,87989.59
2023-03-02T00:36:24.594Z,87987.34
2023-03-02T00:39:09.239Z,87984.78
2023-03-02T00:41:53.996Z,87979.44
2023-03-02T00:44:38.789Z,87975.53
2023-03-02T00:47:23.556Z,87978.31
2023-03-02T00:50:08.405Z,87979.03
2023-03-02T00:52:53.161Z,87979.25
2023-03-02T00:55:37.781Z,87979.25
2023-03-02T00:58:22.598Z,87973.19
2023-03-02T01:01:07.278Z,87970.91
2023-03-02T01:03:52.190Z,87971.63
2023-03-02T01:06:36.812Z,87966.72
2023-03-02T01:09:21.533Z,87965.09
2023-03-02T01:12:06.354Z,87960.03
2023-03-02T01:14:51.132Z,87954.00
2023-03-02T01:17:36.056Z,87949.59
2023-03-02T01:20:20.614Z,87940.97
2023-03-02T01:23:05.417Z,87942.84
2023-03-02T01:25:50.088Z,87939.78
2023-03-02T01:28:34.862Z,87937.00
2023-03-02T01:31:19.549Z,87932.81
2023-03-02T01:34:04.337Z,87930.00
2023-03-02T01:36:49.020Z,87933.28
2023-03-02T01:39:33.856Z,87931.88
2023-03-02T01:42:18.787Z,87934.94
2023-03-02T01:45:03.388Z,87926.53
2023-03-02T01:47:48.279Z,87920.72
2023-03-02T01:50:32.981Z,87924.69
2023-03-02T01:53:17.770Z,87931.44
2023-03-02T01:56:02.457Z,87925.16
2023-03-02T01:58:47.184Z,87929.59
2023-03-02T02:01:31.840Z,87935.66
2023-03-02T02:04:16.638Z,87924.94
2023-03-02T02:07:01.327Z,87923.28
2023-03-02T02:09:46.052Z,87929.59
2023-03-02T02:12:30.922Z,87931.91
2023-03-02T02:15:15.683Z,87927.72
2023-03-02T02:18:00.519Z,87929.13
2023-03-02T02:20:45.223Z,87919.78
2023-03-02T02:23:30.009Z,87929.13
2023-03-02T02:26:14.744Z,87923.97
2023-03-02T02:28:59.574Z,87916.97
2023-03-02T02:31:44.344Z,87918.38
2023-03-02T02:34:29.200Z,87921.66
2023-03-02T02:37:14.096Z,87918.88
2023-03-02T02:39:58.894Z,87919.78
2023-03-02T02:42:43.653Z,87922.31
2023-03-02T02:45:28.541Z,87921.38
2023-03-02T02:48:13.386Z,87923.91
2023-03-02T02:50:58.151Z,87916.66
2023-03-02T02:53:43.101Z,87922.00
2023-03-02T02:56:27.801Z,87925.31
2023-03-02T02:59:12.554Z,87927.66
2023-03-02T03:01:57.232Z,87925.31
2023-03-02T03:04:42.187Z,87922.03
2023-03-02T03:07:27.334Z,87924.63
2023-03-02T03:10:12.246Z,87924.31
2023-03-02T03:12:57.080Z,87927.38
2023-03-02T03:15:41.691Z,87923.88
2023-03-02T03:18:26.369Z,87911.88
2023-03-02T03:21:10.950Z,87910.69
2023-03-02T03:23:55.756Z,87914.22
2023-03-02T03:26:40.416Z,87915.69
2023-03-02T03:29:25.012Z,87922.03
2023-03-02T03:32:09.726Z,87924.13
2023-03-02T03:34:54.517Z,87930.44
2023-03-02T03:37:39.137Z,87933.72
2023-03-02T03:40:23.865Z,87934.19
2023-03-02T03:43:08.730Z,87931.63
2023-03-02T03:45:53.528Z,87925.00
2023-03-02T03:48:38.257Z,87929.41
2023-03-02T03:51:22.988Z,87928.28
2023-03-02T03:54:07.761Z,87924.53
2023-03-02T03:56:52.448Z,87924.03
2023-03-02T03:59:37.139Z,87936.19
2023-03-02T04:02:21.996Z,87937.13
2023-03-02T04:05:07.386Z,87928.91
2023-03-02T04:07:52.573Z,87938.75
2023-03-02T04:10:37.414Z,87934.97
2023-03-02T04:13:22.386Z,87946.69
2023-03-02T04:16:07.208Z,87941.75
2023-03-02T04:18:52.108Z,87950.66
2023-03-02T04:21:36.761Z,87957.19
2023-03-02T04:24:21.595Z,87958.81
2023-03-02T04:27:06.281Z,87957.19
2023-03-02T04:29:51.075Z,87964.47
2023-03-02T04:32:35.840Z,87955.84
2023-03-02T04:35:20.637Z,87961.94
2023-03-02T04:38:05.416Z,87961.94
2023-03-02T04:40:50.131Z,87971.31
2023-03-02T04:43:34.899Z,87966.66
2023-03-02T04:46:19.745Z,87967.81
2023-03-02T04:49:04.991Z,87977.38
2023-03-02T04:51:49.650Z,87976.63
2023-03-02T04:54:34.425Z,87977.78
2023-03-02T04:57:19.120Z,87978.22
2023-03-02T05:00:03.926Z,87976.53
2023-03-02T05:02:48.722Z,87986.56
2023-03-02T05:05:33.447Z,87980.72
2023-03-02T05:08:18.302Z,87985.41
2023-03-02T05:11:02.990Z,87985.59
2023-03-02T05:13:47.788Z,87988.19
2023-03-02T05:16:33.017Z,88001.13
2023-03-02T05:19:17.834Z,87996.50
2023-03-02T05:22:02.660Z,87989.72
2023-03-02T05:24:47.476Z,87996.97
2023-03-02T05:27:32.087Z,87988.28
2023-03-02T05:30:16.804Z,87996.91
2023-03-02T05:33:01.475Z,87996.16
2023-03-02T05:35:46.282Z,88002.00
2023-03-02T05:38:31.585Z,88004.06
2023-03-02T05:41:16.213Z,88003.16
2023-03-02T05:44:01.077Z,88003.31
2023-03-02T05:46:45.929Z,87998.66
2023-03-02T05:49:31.208Z,88004.47
2023-03-02T05:52:15.769Z,87995.09
2023-03-02T05:55:00.616Z,88000.69
2023-03-02T05:57:45.558Z,88002.28
2023-03-02T06:00:30.335Z,87998.72
2023-03-02T06:03:15.267Z,88003.41
2023-03-02T06:06:00.313Z,87999.19
2023-03-02T06:08:45.202Z,88007.63
2023-03-02T06:11:29.974Z,88004.34
2023-03-02T06:14:14.755Z,88006.28
2023-03-02T06:16:59.580Z,88014.72
2023-03-02T06:19:44.870Z,88010.31
2023-03-02T06:22:29.571Z,88015.66
2023-03-02T06:25:14.422Z,88008.81
2023-03-02T06:27:59.151Z,88009.03
2023-03-02T06:30:44.038Z,88009.66
2023-03-02T06:33:28.928Z,88018.28
2023-03-02T06:36:13.553Z,88021.09
2023-03-02T06:38:58.345Z,88020.91
2023-03-02T06:41:43.025Z,88027.00
2023-03-02T06:44:27.694Z,88029.63
2023-03-02T06:47:12.438Z,88040.00
2023-03-02T06:49:57.221Z,88037.44
2023-03-02T06:52:41.871Z,88038.41
2023-03-02T06:55:26.621Z,88041.47
2023-03-02T06:58:11.325Z,88038.84
2023-03-02T07:00:56.125Z,88044.16
2023-03-02T07:03:40.973Z,88049.81
2023-03-02T07:06:25.681Z,88049.59
2023-03-02T07:09:10.370Z,88048.19
2023-03-02T07:11:55.014Z,88048.09
2023-03-02T07:14:39.805Z,88053.19
2023-03-02T07:17:24.441Z,88054.09
2023-03-02T07:20:09.074Z,88048.16
2023-03-02T07:22:53.847Z,88048.00
2023-03-02T07:25:38.763Z,88058.09
2023-03-02T07:28:23.687Z,88064.13
2023-03-02T07:31:08.614Z,88056.69
2023-03-02T07:33:53.836Z,88056.13
2023-03-02T07:36:38.536Z,88063.00
2023-03-02T07:39:23.339Z,88057.31
2023-03-02T07:42:08.023Z,88062.06
2023-03-02T07:44:52.742Z,88059.75
2023-03-02T07:47:37.526Z,88064.88
2023-03-02T07:50:22.362Z,88061.78
2023-03-02T07:53:07.043Z,88062.94
2023-03-02T07:55:51.760Z,88063.16
2023-03-02T07:58:36.472Z,88063.47
2023-03-02T08:01:21.402Z,88067.72
2023-03-02T08:04:06.110Z,88064.47
2023-03-02T08:06:50.891Z,88074.19
2023-03-02T08:09:35.947Z,88062.75
2023-03-02T08:12:20.583Z,88062.44
2023-03-02T08:15:05.343Z,88060.31
2023-03-02T08:17:50.034Z,88063.00
2023-03-02T08:20:34.918Z,88064.00
2023-03-02T08:23:19.615Z,88063.31
2023-03-02T08:26:04.459Z,88057.75
2023-03-02T08:28:49.356Z,88055.09
2023-03-02T08:31:34.406Z,88051.78
2023-03-02T08:34:19.841Z,88050.38
2023-03-02T08:37:04.499Z,88051.09
2023-03-02T08:39:49.371Z,88044.84
2023-03-02T08:42:34.038Z,88043.38
2023-03-02T08:45:18.753Z,88044.06
2023-03-02T08:48:03.501Z,88042.69
2023-03-02T08:50:48.182Z,88045.78
2023-03-02T08:53:32.913Z,88048.84
2023-03-02T08:56:17.770Z,88050.09
2023-03-02T08:59:02.541Z,88057.50
2023-03-02T09:01:47.308Z,88056.75
2023-03-02T09:04:32.680Z,88050.66
2023-03-02T09:07:17.396Z,88053.00
2023-03-02T09:10:02.933Z,88044.72
2023-03-02T09:12:47.630Z,88045.91
2023-03-02T09:15:32.490Z,88045.38
2023-03-02T09:18:17.202Z,88048.44
2023-03-02T09:21:01.927Z,88044.19
2023-03-02T09:23:46.673Z,88050.06
2023-03-02T09:26:31.481Z,88046.31
2023-03-02T09:29:16.291Z,88049.28
2023-03-02T09:32:01.182Z,88046.84
2023-03-02T09:34:46.410Z,88047.19
2023-03-02T09:37:31.079Z,88049.56
2023-03-02T09:40:15.862Z,88042.19
2023-03-02T09:43:00.532Z,88048.63
2023-03-02T09:45:45.446Z,88055.13
2023-03-02T09:48:30.716Z,88054.75
2023-03-02T09:51:15.422Z,88058.84
2023-03-02T09:54:00.237Z,88053.72
2023-03-02T09:56:44.793Z,88049.84
2023-03-02T09:59:29.429Z,88049.69
2023-03-02T10:02:14.048Z,88060.56
2023-03-02T10:04:58.936Z,88062.84
2023-03-02T10:07:43.533Z,88059.31
2023-03-02T10:10:28.344Z,88061.22
2023-03-02T10:13:12.975Z,88061.31
2023-03-02T10:15:57.791Z,88064.41
2023-03-02T10:18:43.062Z,88062.94
2023-03-02T10:21:27.729Z,88067.22
2023-03-02T10:24:12.620Z,88068.50
2023-03-02T10:26:57.372Z,88059.97
2023-03-02T10:29:42.202Z,88065.03
2023-03-02T10:32:26.949Z,88067.69
2023-03-02T10:35:11.764Z,88069.16
2023-03-02T10:37:56.571Z,88064.34
2023-03-02T10:40:41.358Z,88070.47
2023-03-02T10:43:25.846Z,88070.78
2023-03-02T10:46:10.708Z,88066.91
2023-03-02T10:48:55.392Z,88070.41
2023-03-02T10:51:40.185Z,88063.28
2023-03-02T10:54:25.106Z,88067.81
2023-03-02T10:57:09.807Z,88062.16
2023-03-02T10:59:54.765Z,88056.53
2023-03-02T11:02:39.602Z,88064.22
2023-03-02T11:05:24.429Z,88061.69
2023-03-02T11:08:09.098Z,88059.78
2023-03-02T11:10:55.799Z,88068.38
2023-03-02T11:13:44.379Z,88055.09
2023-03-02T11:16:29.096Z,88054.88
2023-03-02T11:19:13.819Z,88060.53
2023-03-02T11:21:58.366Z,88061.56
2023-03-02T11:24:43.072Z,88053.31
2023-03-02T11:27:27.890Z,88056.56
2023-03-02T11:30:12.779Z,88048.19
2023-03-02T11:32:57.511Z,88055.69
2023-03-02T11:35:42.360Z,88055.22
2023-03-02T11:38:27.235Z,88047.06
2023-03-02T11:41:12.009Z,88051.88
2023-03-02T11:43:56.762Z,88052.19
2023-03-02T11:46:41.531Z,88049.84
2023-03-02T11:49:26.247Z,88053.69
2023-03-02T11:52:11.088Z,88045.47
2023-03-02T11:54:55.916Z,88041.09
2023-03-02T11:57:40.732Z,88046.94
2023-03-02T12:00:25.463Z,88039.47
2023-03-02T12:03:10.341Z,88044.75
2023-03-02T12:05:55.007Z,88034.63
2023-03-02T12:08:39.907Z,88037.38
2023-03-02T12:11:24.707Z,88035.72
2023-03-02T12:14:09.566Z,88035.44
2023-03-02T12:16:54.517Z,88034.09
2023-03-02T12:19:39.664Z,88039.44
2023-03-02T12:22:24.332Z,88035.34
2023-03-02T12:25:09.156Z,88037.84
2023-03-02T12:27:53.943Z,88033.53
2023-03-02T12:30:38.677Z,88031.59
2023-03-02T12:33:23.402Z,88030.34
2023-03-02T12:36:08.104Z,88033.66
2023-03-02T12:38:53.099Z,88028.38
2023-03-02T12:41:37.924Z,88025.94
2023-03-02T12:44:22.775Z,88021.22
2023-03-02T12:47:07.592Z,88021.44
2023-03-02T12:49:52.835Z,88020.00
2023-03-02T12:52:37.689Z,88015.56
2023-03-02T12:55:22.889Z,88009.03
2023-03-02T12:58:08.918Z,88012.94
2023-03-02T13:00:54.072Z,88007.41
2023-03-02T13:03:38.929Z,88003.09
2023-03-02T13:06:23.737Z,88008.84
2023-03-02T13:09:08.499Z,88003.94
2023-03-02T13:11:53.152Z,88001.03
2023-03-02T13:14:37.795Z,88005.84
2023-03-02T13:17:22.491Z,88004.38
2023-03-02T13:20:07.257Z,87999.94
2023-03-02T13:22:52.026Z,87999.25
2023-03-02T13:25:36.711Z,88005.03
2023-03-02T13:28:21.591Z,88004.69
2023-03-02T13:31:06.371Z,88007.47
2023-03-02T13:33:51.624Z,88004.34
2023-03-02T13:36:36.353Z,87996.31
2023-03-02T13:39:21.173Z,87997.97
2023-03-02T13:42:05.770Z,88004.69
2023-03-02T13:44:50.562Z,88005.09
2023-03-02T13:47:35.486Z,87999.97
2023-03-02T13:50:20.262Z,87998.81
2023-03-02T13:53:04.982Z,87993.44
2023-03-02T13:55:49.712Z,87988.59
2023-03-02T13:58:34.408Z,87991.34
2023-03-02T14:01:19.102Z,87983.88
2023-03-02T14:04:04.263Z,87988.06
2023-03-02T14:06:49.036Z,87988.41
2023-03-02T14:09:33.824Z,87988.94
2023-03-02T14:12:18.782Z,87987.16
2023-03-02T14:15:03.652Z,87995.31
2023-03-02T14:17:48.908Z,87998.09
2023-03-02T14:20:33.474Z,87991.19
2023-03-02T14:23:18.341Z,87993.44
2023-03-02T14:26:03.041Z,87988.94
2023-03-02T14:28:53.602Z,87992.94
2023-03-02T14:31:44.998Z,87996.59
2023-03-02T14:34:29.908Z,87995.72
2023-03-02T14:37:14.632Z,87982.69
2023-03-02T14:39:59.463Z,87985.31
2023-03-02T14:42:44.005Z,87991.84
2023-03-02T14:45:30.792Z,87999.97
2023-03-02T14:48:16.209Z,87994.97
2023-03-02T14:51:01.251Z,87989.22
2023-03-02T14:53:46.071Z,87994.81
2023-03-02T14:56:30.843Z,87997.56
2023-03-02T14:59:15.665Z,87994.91
2023-03-02T15:02:10.237Z,87990.94
2023-03-02T15:05:00.570Z,87994.41
2023-03-02T15:07:45.252Z,87996.53
2023-03-02T15:10:30.198Z,88002.72
2023-03-02T15:13:14.893Z,87998.88
2023-03-02T15:15:59.761Z,87999.75
2023-03-02T15:18:44.562Z,88000.41
2023-03-02T15:21:29.322Z,88002.31
2023-03-02T15:24:14.218Z,88003.34
2023-03-02T15:26:59.010Z,88001.06
2023-03-02T15:29:43.818Z,88002.78
2023-03-02T15:32:28.590Z,88006.03
2023-03-02T15:35:13.862Z,88005.91
2023-03-02T15:37:58.532Z,88001.50
2023-03-02T15:40:43.228Z,88007.56
2023-03-02T15:43:28.119Z,88007.81
2023-03-02T15:46:12.880Z,88006.19
2023-03-02T15:48:57.619Z,88012.53
2023-03-02T15:51:42.387Z,88009.38
2023-03-02T15:54:27.221Z,88013.63
2023-03-02T15:57:12.007Z,88015.97
2023-03-02T15:59:56.815Z,88009.19
2023-03-02T16:02:41.558Z,88021.81
2023-03-02T16:05:26.383Z,88016.63
2023-03-02T16:08:11.165Z,88017.75
2023-03-02T16:10:56.006Z,88019.75
2023-03-02T16:13:40.796Z,88017.88
2023-03-02T16:16:25.550Z,88025.88
2023-03-02T16:19:10.514Z,88020.75
2023-03-02T16:21:55.166Z,88023.28
2023-03-02T16:24:41.820Z,88025.28
2023-03-02T16:27:26.698Z,88031.03
2023-03-02T16:30:11.582Z,88036.84
2023-03-02T16:32:56.362Z,88038.56
2023-03-02T16:35:41.180Z,88036.88
2023-03-02T16:38:26.466Z,88046.47
2023-03-02T16:41:11.154Z,88054.84
2023-03-02T16:43:55.836Z,88045.31
2023-03-02T16:46:40.700Z,88059.16
2023-03-02T16:49:25.838Z,88066.84
2023-03-02T16:52:10.571Z,88066.84
2023-03-02T16:54:55.285Z,88058.59
2023-03-02T16:57:40.048Z,88072.78
2023-03-02T17:00:24.868Z,88079.59
2023-03-02T17:03:09.597Z,88076.00
2023-03-02T17:05:54.326Z,88076.06
2023-03-02T17:08:39.229Z,88084.94
2023-03-02T17:11:24.109Z,88089.22
2023-03-02T17:14:08.902Z,88090.06
2023-03-02T17:16:53.569Z,88094.81
2023-03-02T17:19:38.292Z,88100.06
2023-03-02T17:22:22.895Z,88106.59
2023-03-02T17:25:07.829Z,88112.00
2023-03-02T17:27:52.711Z,88115.50
2023-03-02T17:30:37.775Z,88116.88
2023-03-02T17:33:22.658Z,88122.75
2023-03-02T17:36:07.441Z,88124.38
2023-03-02T17:38:52.690Z,88121.59
2023-03-02T17:41:37.405Z,88122.28
2023-03-02T17:44:22.258Z,88125.34
2023-03-02T17:47:06.998Z,88129.34
2023-03-02T17:49:51.809Z,88132.53
2023-03-02T17:52:36.472Z,88137.72
2023-03-02T17:55:21.296Z,88142.41
2023-03-02T17:58:06.008Z,88147.88
2023-03-02T18:00:52.959Z,88150.72
2023-03-02T18:03:38.665Z,88150.78
2023-03-02T18:06:23.834Z,88158.53
2023-03-02T18:09:08.531Z,88168.66
2023-03-02T18:11:53.375Z,88170.72
2023-03-02T18:14:38.135Z,88178.09
2023-03-02T18:17:22.904Z,88178.56
2023-03-02T18:20:07.639Z,88173.63
2023-03-02T18:22:52.488Z,88183.53
2023-03-02T18:25:37.189Z,88188.72
2023-03-02T18:28:21.978Z,88192.69
2023-03-02T18:31:06.637Z,88189.00
2023-03-02T18:33:51.446Z,88198.84
2023-03-02T18:36:36.132Z,88196.75
2023-03-02T18:39:20.937Z,88202.78
2023-03-02T18:42:05.619Z,88199.84
2023-03-02T18:44:50.397Z,88211.03
2023-03-02T18:47:35.188Z,88211.84
2023-03-02T18:50:19.946Z,88205.25
2023-03-02T18:53:04.911Z,88210.41
2023-03-02T18:55:49.479Z,88212.97
2023-03-02T18:58:34.468Z,88213.44
2023-03-02T19:01:19.219Z,88225.94
2023-03-02T19:04:04.275Z,88223.47
2023-03-02T19:06:48.836Z,88214.59
2023-03-02T19:09:33.723Z,88221.88
2023-03-02T19:12:18.570Z,88225.66
2023-03-02T19:15:03.448Z,88230.59
2023-03-02T19:17:48.344Z,88233.00
2023-03-02T19:20:33.119Z,88235.16
2023-03-02T19:23:17.792Z,88233.00
2023-03-02T19:26:02.500Z,88228.34
2023-03-02T19:28:47.305Z,88234.09
2023-03-02T19:31:31.898Z,88231.97
2023-03-02T19:34:16.754Z,88237.84
2023-03-02T19:37:01.477Z,88235.16
2023-03-02T19:39:46.440Z,88245.81
2023-03-02T19:42:31.335Z,88241.53
2023-03-02T19:45:16.024Z,88246.22
2023-03-02T19:48:00.883Z,88244.09
2023-03-02T19:50:45.667Z,88249.03
2023-03-02T19:53:30.542Z,88253.06
2023-03-02T19:56:15.344Z,88250.09
2023-03-02T19:59:00.038Z,88244.00
2023-03-02T20:01:44.593Z,88248.00
2023-03-02T20:04:29.479Z,88246.13
2023-03-02T20:07:14.203Z,88263.97
2023-03-02T20:09:58.914Z,88260.69
2023-03-02T20:12:43.638Z,88261.63
2023-03-02T20:15:28.490Z,88259.06
2023-03-02T20:18:13.223Z,88265.22
2023-03-02T20:20:57.859Z,88265.69
2023-03-02T20:23:42.683Z,88272.72
2023-03-02T20:26:27.408Z,88271.28
2023-03-02T20:29:12.197Z,88282.34
2023-03-02T20:31:56.934Z,88281.69
2023-03-02T20:34:41.903Z,88281.97
2023-03-02T20:37:26.622Z,88286.66
2023-03-02T20:40:11.350Z,88294.91
2023-03-02T20:42:56.044Z,88296.34
2023-03-02T20:45:40.865Z,88291.25
2023-03-02T20:48:25.693Z,88297.56
2023-03-02T20:51:10.522Z,88299.19
2023-03-02T20:53:55.309Z,88303.13
2023-03-02T20:56:40.095Z,88304.50
2023-03-02T20:59:24.923Z,88307.53
2023-03-02T21:02:09.612Z,88309.41
2023-03-02T21:04:54.463Z,88304.50
2023-03-02T21:07:39.087Z,88303.34
2023-03-02T21:10:24.388Z,88306.66
2023-03-02T21:13:09.064Z,88305.47
2023-03-02T21:15:54.031Z,88313.00
2023-03-02T21:18:39.230Z,88316.06
2023-03-02T21:21:35.602Z,88319.59
2023-03-02T21:24:25.639Z,88317.97
2023-03-02T21:27:10.333Z,88319.41
2023-03-02T21:29:55.026Z,88316.59
2023-03-02T21:32:39.666Z,88321.31
2023-03-02T21:35:24.424Z,88326.22
2023-03-02T21:38:09.262Z,88322.72
2023-03-02T21:40:54.019Z,88309.84
2023-03-02T21:43:38.828Z,88311.97
2023-03-02T21:46:23.507Z,88313.13
2023-03-02T21:49:08.319Z,88319.69
2023-03-02T21:51:52.992Z,88317.56
2023-03-02T21:54:37.874Z,88307.50
2023-03-02T21:57:22.528Z,88315.72
2023-03-02T22:00:07.213Z,88316.41
2023-03-02T22:02:51.953Z,88320.84
2023-03-02T22:05:36.810Z,88324.13
2023-03-02T22:08:21.630Z,88315.44
2023-03-02T22:11:06.348Z,88301.38
2023-03-02T22:13:51.354Z,88304.91
2023-03-02T22:16:36.133Z,88306.78
2023-03-02T22:19:21.365Z,88307.47
2023-03-02T22:22:06.112Z,88307.97
2023-03-02T22:24:50.685Z,88306.34
2023-03-02T22:27:35.598Z,88307.75
2023-03-02T22:30:20.406Z,88304.47
2023-03-02T22:33:05.207Z,88307.03
2023-03-02T22:35:50.074Z,88299.53
2023-03-02T22:38:34.855Z,88291.81
2023-03-02T22:41:19.696Z,88297.69
2023-03-02T22:44:04.621Z,88306.59
2023-03-02T22:46:49.408Z,88300.72
2023-03-02T22:49:34.142Z,88300.50
2023-03-02T22:52:18.874Z,88295.34
2023-03-02T22:55:03.694Z,88295.34
2023-03-02T22:57:48.461Z,88290.19
2023-03-02T23:00:33.162Z,88298.16
2023-03-02T23:03:17.774Z,88302.16
2023-03-02T23:06:02.574Z,88306.09
2023-03-02T23:08:47.250Z,88304.47
2023-03-02T23:11:31.922Z,88304.94
2023-03-02T23:14:16.751Z,88300.25
2023-03-02T23:17:01.484Z,88304.69
2023-03-02T23:19:49.391Z,88304.69
2023-03-02T23:22:34.145Z,88305.66
2023-03-02T23:25:18.896Z,88299.09
2023-03-02T23:28:03.570Z,88297.22
2023-03-02T23:30:48.393Z,88294.66
2023-03-02T23:33:33.100Z,88303.28
2023-03-02T23:36:17.881Z,88301.66
2023-03-02T23:39:02.750Z,88298.38
2023-03-02T23:41:47.498Z,88301.19
2023-03-02T23:44:32.329Z,88298.81
2023-03-02T23:47:16.958Z,88305.34
2023-03-02T23:50:01.634Z,88305.09
2023-03-02T23:52:46.471Z,88304.63
2023-03-02T23:55:31.169Z,88309.78
2023-03-02T23:58:15.889Z,88304.91
